Skip Navigation LinksHome page > Weather > Current weather Skip Navigation Links

Current Weather

Eureka, Nunavut

For information only: do not use for flight planning or navigation.
Latest weather
Observation time Tuesday, August 30, 2016 9:00 AM CDT
Local time Tuesday, August 30, 2016 9:54 AM CDT
Flight conditions Marginal Visual Meteorological Conditions
Winds
Wind direction North-Northwest (330°)
Wind speed 21 mph
Visibility 12 mi.
Present weather light snow
Sky condition
Ceiling 2,800 ft. overcast
Cloud layer few clouds 1,000 ft.
Cloud layer few clouds 1,800 ft.
Cloud layer overcast 2,800 ft.
Temperature 32°F
Dewpoint 25°F
Altimeter 29.95 in.Hg
Derived measurements
Relative humidity 74%
Wind chill 20°F
Density altitude -1762 ft.
Sea-level pressure 29.96 in.Hg
METAR CWEU 301400Z 33018KT 12SM -SN FEW010 FEW018 OVC028 00/M04 A2995 RMK SC1SC1SC7 SC TR SLP145

Settings

Location code

InnerDrive.Weather 4.0.5722.1 Release CLR 4.0.30319.34209
Copyright ©2015 Inner Drive Technology. All rights reserved. Portions Copyright ©1986-2015 David Braverman.

Find weather

Site navigation


Skip Navigation Links

Place info

Page info

PayPal - The safer, easier way to pay online!

Return home.

Copyright ©2016 Inner Drive Technology. Purveyors of fine, hand-crafted computer software. Page printed 2016-08-30T14:54:55 UTC.